»·PEaware :: DCM89 KSJC-KPSP

DCM89 :: KSJC-KPSP

FLIGHT INFORMATION

Flight Status: Arrived
Operator:
DotCom
More flights by this operator :: More flights under this callsign
Pilot: Josh T. (20631)
Aircraft: DASSAULT AVIATION FALCON 50
(FA50)
More flights by this aircraft type
Origin: KSJC Mineta San Jose Intl
United States
Destination: KPSP Palm Springs Intl
United States
More flights between these airports :: More routes between these airports
Route: TECKY3 LOSHN CLASN SIZLR3
File this flight plan on PilotEdge
Remarks:
Altitude:
(Current/Filed)
35,000ft
Speed:
(Current/Filed)
475kts
Departed: 06-Jan-21 08:14 PM
Arrived: 06-Jan-21 09:12 PM
Distance/Time
Traveled:
339nm/0:58
Distance/Time
To Go:
Arrived

Flight Plot

Page will automatically refresh every two minutes.

Flight plan parsing failed; only flown route is shown


Map Options




Map Legend


Flown Route
Filed Route
Departure Airport
Arrival Airport
Navaid (VOR, NDB)
Fix

Horizontal Profiles

Position Reports

Time Latitude Longitude Heading Altitude Ground
Speed
06-Jan-21 19:39 37.357745 -121.929688 50 59ft 0kts
06-Jan-21 19:40 37.357745 -121.929688 50 59ft 0kts
06-Jan-21 19:41 37.357745 -121.929688 50 59ft 0kts
06-Jan-21 19:42 37.357745 -121.929688 50 59ft 0kts
06-Jan-21 19:43 37.357745 -121.929688 50 59ft 0kts
06-Jan-21 19:44 37.357745 -121.929688 50 59ft 0kts
06-Jan-21 19:45 37.357745 -121.929688 50 59ft 0kts
06-Jan-21 19:46 37.357745 -121.929688 50 59ft 0kts
06-Jan-21 19:47 37.357745 -121.929688 50 59ft 0kts
06-Jan-21 19:48 37.357745 -121.929688 50 59ft 0kts
06-Jan-21 19:49 37.357745 -121.929688 50 59ft 0kts
06-Jan-21 19:50 37.357745 -121.929688 50 59ft 0kts
06-Jan-21 19:51 37.357745 -121.929688 50 59ft 0kts
06-Jan-21 19:52 37.357745 -121.929688 50 59ft 0kts
06-Jan-21 19:53 37.357745 -121.929688 50 59ft 0kts
06-Jan-21 19:54 37.357745 -121.929688 50 59ft 0kts
06-Jan-21 19:55 37.357745 -121.929688 50 59ft 0kts
06-Jan-21 19:56 37.357745 -121.929688 50 59ft 0kts
06-Jan-21 19:57 37.357745 -121.929688 50 59ft 0kts
06-Jan-21 19:58 37.357745 -121.929688 50 59ft 0kts
06-Jan-21 19:59 37.357745 -121.929688 50 59ft 0kts
06-Jan-21 20:00 37.357746 -121.929686 50 59ft 0kts
06-Jan-21 20:01 37.357748 -121.929683 50 59ft 0kts
06-Jan-21 20:02 37.357750 -121.929681 50 59ft 0kts
06-Jan-21 20:03 37.357752 -121.929678 50 59ft 0kts
06-Jan-21 20:04 37.357753 -121.929675 50 59ft 0kts
06-Jan-21 20:05 37.357621 -121.929027 56 59ft 5kts
06-Jan-21 20:06 37.356733 -121.927575 138 59ft 6kts
06-Jan-21 20:07 37.354942 -121.925608 138 59ft 10kts
06-Jan-21 20:08 37.354816 -121.923089 139 59ft 7kts
06-Jan-21 20:09 37.353259 -121.921373 138 59ft 9kts
06-Jan-21 20:10 37.352163 -121.919855 82 59ft 0kts
06-Jan-21 20:11 37.352163 -121.919853 82 59ft 0kts
06-Jan-21 20:12 37.352197 -121.919701 66 59ft 4kts
06-Jan-21 20:13 37.358744 -121.925592 318 60ft 125kts
06-Jan-21 20:14 37.397247 -121.965039 318 3095ft 212kts
06-Jan-21 20:15 37.449952 -121.941779 79 5228ft 297kts
06-Jan-21 20:16 37.407168 -121.875702 148 7886ft 233kts
06-Jan-21 20:17 37.350962 -121.815827 136 10974ft 296kts
06-Jan-21 20:18 37.287422 -121.740380 142 14396ft 327kts
06-Jan-21 20:19 37.217575 -121.661900 142 17587ft 345kts
06-Jan-21 20:20 37.144857 -121.579715 142 20444ft 357kts
06-Jan-21 20:21 37.069962 -121.495240 142 22885ft 368kts
06-Jan-21 20:22 36.998400 -121.398666 136 25150ft 385kts
06-Jan-21 20:23 36.924914 -121.298106 136 27184ft 398kts
06-Jan-21 20:24 36.848705 -121.194283 136 28928ft 411kts
06-Jan-21 20:25 36.770415 -121.087979 136 30488ft 421kts
06-Jan-21 20:26 36.690031 -120.979185 136 31879ft 430kts
06-Jan-21 20:27 36.605609 -120.873255 142 33120ft 433kts
06-Jan-21 20:28 36.516260 -120.770349 141 34217ft 440kts
06-Jan-21 20:29 36.426574 -120.666005 141 35173ft 445kts
06-Jan-21 20:30 36.333533 -120.558123 141 35314ft 469kts
06-Jan-21 20:31 36.235906 -120.445240 140 35307ft 489kts
06-Jan-21 20:33 36.135172 -120.329182 140 35310ft 502kts
06-Jan-21 20:34 36.031756 -120.210486 140 35310ft 508kts
06-Jan-21 20:35 35.927711 -120.091528 140 35308ft 510kts
06-Jan-21 20:36 35.828819 -119.966358 121 35310ft 517kts
06-Jan-21 20:37 35.771408 -119.803496 113 35309ft 518kts
06-Jan-21 20:38 35.712510 -119.641214 115 35306ft 518kts
06-Jan-21 20:39 35.648529 -119.483321 129 35308ft 513kts
06-Jan-21 20:40 35.551847 -119.355314 135 35304ft 510kts
06-Jan-21 20:41 35.456019 -119.227173 134 35302ft 509kts
06-Jan-21 20:42 35.360149 -119.098600 134 35300ft 508kts
06-Jan-21 20:43 35.264676 -118.971371 135 35296ft 508kts
06-Jan-21 20:44 35.168780 -118.844602 135 35067ft 512kts
06-Jan-21 20:45 35.069495 -118.713786 135 32526ft 528kts
06-Jan-21 20:46 34.970638 -118.583905 135 29644ft 516kts
06-Jan-21 20:47 34.873239 -118.456584 135 27042ft 511kts
06-Jan-21 20:47 34.792566 -118.350928 133 24967ft 511kts
06-Jan-21 20:49 34.691245 -118.197544 129 23838ft 486kts
06-Jan-21 20:50 34.607555 -118.068124 129 22358ft 487kts
06-Jan-21 20:51 34.539154 -117.926495 117 21001ft 487kts
06-Jan-21 20:51 34.489212 -117.804470 117 20086ft 483kts
06-Jan-21 20:52 34.429505 -117.659106 116 18988ft 476kts
06-Jan-21 20:53 34.371151 -117.516223 116 17885ft 469kts
06-Jan-21 20:54 34.313836 -117.376711 117 16787ft 453kts
06-Jan-21 20:55 34.255757 -117.246698 120 15955ft 410kts
06-Jan-21 20:56 34.203456 -117.136252 120 15915ft 362kts
06-Jan-21 20:57 34.153503 -117.030179 120 16031ft 363kts
06-Jan-21 20:58 34.103322 -116.923602 120 16035ft 365kts
06-Jan-21 20:59 34.061223 -116.833152 121 15206ft 289kts
06-Jan-21 21:00 34.021347 -116.728534 108 13808ft 354kts
06-Jan-21 21:01 33.991540 -116.616842 108 12005ft 344kts
06-Jan-21 21:02 33.950986 -116.522203 137 10620ft 296kts
06-Jan-21 21:03 33.894191 -116.457232 136 9375ft 273kts
06-Jan-21 21:04 33.840192 -116.396205 137 7660ft 247kts
06-Jan-21 21:05 33.792738 -116.343345 137 4666ft 221kts
06-Jan-21 21:06 33.737869 -116.328112 199 2383ft 202kts
06-Jan-21 21:07 33.730427 -116.379328 308 1537ft 183kts
06-Jan-21 21:08 33.759310 -116.427922 306 1477ft 147kts
06-Jan-21 21:09 33.783825 -116.466311 315 1352ft 140kts
06-Jan-21 21:10 33.813733 -116.493470 323 730ft 129kts
06-Jan-21 21:11 33.832961 -116.510583 321 480ft 18kts
06-Jan-21 21:12 33.832759 -116.511919 191 480ft 0kts
06-Jan-21 21:13 33.830425 -116.510490 143 480ft 14kts
06-Jan-21 21:14 33.826712 -116.507085 143 480ft 12kts
06-Jan-21 21:15 33.825351 -116.508162 271 480ft 7kts
06-Jan-21 21:16 33.825619 -116.509340 265 480ft 0kts
06-Jan-21 21:17 33.825619 -116.509340 265 480ft 0kts
06-Jan-21 21:18 33.825619 -116.509340 265 480ft 0kts

Navigation Log

Ident Type
Flight plan parsing failed, navigation log unavailable